Weather reports worldwide

Advertisment
Sutton bonington, United Kingdom (99025): temperature & dewpoint: 14.10.2018 15:00:00 - 20.10.2018 15:00:00 (BST)Sutton bonington, United Kingdom (99025): temperature -20cm & temperature -100cm: 14.10.2018 15:00:00 - 20.10.2018 15:00:00 (BST)Sutton bonington, United Kingdom (99025): wind speed: 14.10.2018 15:00:00 - 20.10.2018 15:00:00 (BST)Sutton bonington, United Kingdom (99025): wind direction: 14.10.2018 15:00:00 - 20.10.2018 15:00:00 (BST)Sutton bonington, United Kingdom (99025): precipitation: 14.10.2018 15:00:00 - 20.10.2018 15:00:00 (BST)
Date & Time tt [°C] td [°C] tt -20cm [°C] tt -100cm [°C] ff [km/h] ff [kn] dd rr [mm]
20.10.2018 15:00:00 - - - - - - - -
20.10.2018 14:00:00 15,3 9,9 - - 11 6 SW 0,0
20.10.2018 13:00:00 14,4 10,2 - - 13 7 WSW 0,0
20.10.2018 12:00:00 12,9 9,9 - - 8 4 WSW 0,0
20.10.2018 11:00:00 11,4 9,6 - - 8 4 SSW 0,0
20.10.2018 10:00:00 9,2 8,8 11,7 13,7 5 3 SSW 0,0
20.10.2018 09:00:00 7,6 7,2 - - 4 2 W 0,0
20.10.2018 08:00:00 7,2 7,0 - - 5 3 S 0,0
20.10.2018 07:00:00 6,7 6,6 - - 4 2 SSW 0,0
20.10.2018 06:00:00 6,5 6,3 - - 4 2 S 0,0
20.10.2018 05:00:00 6,0 5,7 - - 2 1 S 0,0
20.10.2018 04:00:00 6,3 6,0 - - 0 0 N 0,0
20.10.2018 03:00:00 6,5 6,2 - - 2 1 E 0,0
20.10.2018 02:00:00 6,4 6,0 - - 2 1 E 0,0
20.10.2018 01:00:00 6,5 5,8 - - 4 2 SE 0,0
20.10.2018 00:00:00 8,2 7,5 - - 5 3 S 0,0
19.10.2018 23:00:00 8,5 7,2 - - 4 2 S 0,0
19.10.2018 22:00:00 9,1 7,8 - - 8 4 SW 0,0
19.10.2018 21:00:00 8,2 6,9 - - 5 3 ESE 0,0
19.10.2018 20:00:00 8,5 6,8 - - 4 2 SE 0,0
19.10.2018 19:00:00 11,6 8,2 - - 5 3 SW 0,0
19.10.2018 18:00:00 12,7 7,5 - - 5 3 SSW 0,0
19.10.2018 17:00:00 14,0 7,8 - - 8 4 W 0,0
19.10.2018 16:00:00 14,5 7,2 - - 13 7 WNW 0,0
19.10.2018 15:00:00 14,6 8,5 - - 8 4 W 0,0
19.10.2018 14:00:00 13,9 8,0 - - 13 7 W 0,0
19.10.2018 13:00:00 12,9 7,5 - - 9 5 WSW 0,0
19.10.2018 12:00:00 11,5 7,5 - - 4 2 ESE 0,0
19.10.2018 11:00:00 7,7 6,2 - - 2 1 NW 0,0
19.10.2018 10:00:00 5,3 5,1 12,0 14,0 4 2 SE 0,0
19.10.2018 09:00:00 3,7 3,6 - - 5 3 SE 0,0
19.10.2018 08:00:00 2,1 1,8 - - 4 2 S 0,0
19.10.2018 07:00:00 2,3 2,1 - - 4 2 SSW 0,0
19.10.2018 06:00:00 1,7 1,5 - - 4 2 S 0,0
19.10.2018 05:00:00 2,3 2,1 - - 0 0 N 0,0
19.10.2018 04:00:00 2,5 2,3 - - 4 2 SW 0,0
19.10.2018 03:00:00 2,5 2,2 - - 2 1 E 0,0
19.10.2018 02:00:00 2,8 2,3 - - 4 2 WNW 0,0
19.10.2018 01:00:00 3,2 2,6 - - 2 1 SE 0,0
19.10.2018 00:00:00 4,3 3,6 - - 2 1 E 0,0
18.10.2018 23:00:00 4,7 3,6 - - 2 1 E 0,0
18.10.2018 22:00:00 6,0 4,2 - - 2 1 SW 0,0
18.10.2018 21:00:00 6,4 4,3 - - 4 2 E 0,0
18.10.2018 20:00:00 7,4 4,7 - - 5 3 E 0,0
18.10.2018 19:00:00 9,0 5,0 - - 5 3 E 0,0
18.10.2018 18:00:00 10,2 5,8 - - 4 2 ENE 0,0
18.10.2018 17:00:00 11,7 5,7 - - 5 3 ENE 0,0
18.10.2018 16:00:00 13,1 4,4 - - 8 4 ENE 0,0
18.10.2018 15:00:00 13,1 4,6 - - 9 5 E 0,0
18.10.2018 14:00:00 12,8 5,5 - - 9 5 ENE 0,0
18.10.2018 13:00:00 12,1 6,6 - - 9 5 NE 0,0
18.10.2018 12:00:00 11,5 6,2 - - 9 5 NE 0,0
18.10.2018 11:00:00 10,6 5,3 - - 8 4 NE 0,0
18.10.2018 10:00:00 9,6 5,5 13,4 14,2 4 2 ENE 0,0
18.10.2018 09:00:00 8,3 4,8 - - 4 2 N 0,0
18.10.2018 08:00:00 8,4 5,0 - - 9 5 NNE 0,0
18.10.2018 07:00:00 8,6 5,2 - - 11 6 N 0,0
18.10.2018 06:00:00 8,6 5,2 - - 5 3 N 0,0
18.10.2018 05:00:00 8,9 6,6 - - 4 2 NW 0,0
18.10.2018 04:00:00 8,9 7,5 - - 5 3 WNW 0,0
18.10.2018 03:00:00 9,1 7,7 - - 5 3 NW 0,0
18.10.2018 02:00:00 8,8 8,2 - - 4 2 WNW 0,0
18.10.2018 01:00:00 8,4 7,6 - - 4 2 W 0,0
18.10.2018 00:00:00 9,4 8,2 - - 4 2 WNW 0,0
17.10.2018 23:00:00 10,3 8,7 - - 4 2 NW 0,0
17.10.2018 22:00:00 11,0 9,2 - - 5 3 NW 0,0
17.10.2018 21:00:00 11,9 9,5 - - 5 3 NNW 0,0
17.10.2018 20:00:00 12,2 9,6 - - 4 2 WNW 0,0
17.10.2018 19:00:00 13,0 9,7 - - 5 3 NNW 0,0
17.10.2018 18:00:00 14,0 10,4 - - 9 5 WNW 0,0
17.10.2018 17:00:00 15,2 10,3 - - 9 5 NW 0,0
17.10.2018 16:00:00 15,9 9,1 - - 11 6 WNW 0,0
17.10.2018 15:00:00 16,4 8,9 - - 8 4 W 0,0
17.10.2018 14:00:00 15,8 10,0 - - 11 6 WNW 0,0
17.10.2018 13:00:00 15,5 10,9 - - 9 5 WNW 0,0
17.10.2018 12:00:00 14,2 11,2 - - 8 4 WNW 0,0
17.10.2018 11:00:00 13,3 11,1 - - 9 5 W 0,0
17.10.2018 10:00:00 12,2 11,1 13,7 14,2 5 3 NW 0,0
17.10.2018 09:00:00 11,2 10,4 - - 2 1 WNW 0,0
17.10.2018 08:00:00 11,5 10,5 - - 5 3 W 0,0
17.10.2018 07:00:00 12,2 10,7 - - 5 3 SW 0,0
17.10.2018 06:00:00 12,2 10,7 - - 5 3 SSW 0,0
17.10.2018 05:00:00 12,5 10,7 - - 8 4 SW 0,0
17.10.2018 04:00:00 12,5 10,6 - - 8 4 SSW 0,0
17.10.2018 03:00:00 12,4 10,6 - - 5 3 SSW 0,0
17.10.2018 02:00:00 12,4 10,4 - - 8 4 SSW 0,0
17.10.2018 01:00:00 12,4 10,2 - - 9 5 SW 0,0
17.10.2018 00:00:00 12,5 10,2 - - 11 6 SW 0,0
16.10.2018 23:00:00 12,6 10,8 - - 8 4 S 0,0
16.10.2018 22:00:00 13,3 11,5 - - 8 4 SSW 0,0
16.10.2018 21:00:00 14,0 12,1 - - 8 4 SSW 0,0
16.10.2018 20:00:00 14,5 12,6 - - 9 5 S 0,0
16.10.2018 19:00:00 15,0 12,8 - - 9 5 S 0,0
16.10.2018 18:00:00 15,4 13,3 - - 9 5 S 0,0
16.10.2018 17:00:00 15,4 13,6 - - 9 5 SSE 0,0
16.10.2018 16:00:00 15,4 13,4 - - 9 5 S 0,0
16.10.2018 15:00:00 15,5 13,4 - - 8 4 S 0,0
16.10.2018 14:00:00 15,4 13,2 - - 11 6 S 0,0
16.10.2018 13:00:00 14,6 12,7 - - 13 7 S 0,0
16.10.2018 12:00:00 13,9 12,4 - - 11 6 S 0,0
16.10.2018 11:00:00 13,4 12,0 - - 4 2 S 0,0
16.10.2018 10:00:00 12,5 11,6 13,2 14,4 13 7 S 0,0
16.10.2018 09:00:00 11,8 11,4 - - 13 7 SSE 0,0
16.10.2018 08:00:00 11,5 11,3 - - 9 5 SSE 0,0
16.10.2018 07:00:00 10,9 10,8 - - 8 4 SSE 0,0
16.10.2018 06:00:00 10,5 10,4 - - 5 3 ESE 0,0
16.10.2018 05:00:00 10,4 10,3 - - 2 1 E 0,2
16.10.2018 04:00:00 10,3 10,3 - - 4 2 NNW 0,0
16.10.2018 03:00:00 10,2 10,2 - - 4 2 ENE 0,0
16.10.2018 02:00:00 10,2 10,1 - - 4 2 ENE 0,0
16.10.2018 01:00:00 10,1 10,0 - - 5 3 NE 0,0
16.10.2018 00:00:00 10,1 9,9 - - 8 4 ENE 0,2
15.10.2018 23:00:00 10,1 9,9 - - 8 4 NE 0,0
15.10.2018 22:00:00 10,2 9,9 - - 9 5 NE 0,0
15.10.2018 21:00:00 10,2 9,8 - - 9 5 NE 0,0
15.10.2018 20:00:00 10,1 9,6 - - 9 5 NE 0,0
15.10.2018 19:00:00 10,2 9,4 - - 13 7 NE 0,2
15.10.2018 18:00:00 10,4 9,8 - - 15 8 NE 0,0
15.10.2018 17:00:00 10,4 9,8 - - 15 8 NE 0,6
15.10.2018 16:00:00 10,6 9,8 - - 15 8 NE 0,0
15.10.2018 15:00:00 10,5 9,7 - - 16 9 NNE 0,4
15.10.2018 14:00:00 10,5 9,7 - - 18 10 NE 0,2
15.10.2018 13:00:00 10,3 9,3 - - 18 10 NNE 0,0
15.10.2018 12:00:00 9,7 9,2 - - 15 8 NNE 0,2
15.10.2018 11:00:00 9,5 9,0 - - 16 9 NNE 0,6
15.10.2018 10:00:00 9,3 8,8 13,7 14,7 16 9 N 0,6
15.10.2018 09:00:00 9,0 8,6 - - 18 10 N 1,2
15.10.2018 08:00:00 8,9 8,4 - - 13 7 N 0,4
15.10.2018 07:00:00 9,1 8,3 - - 16 9 NNE 0,2
15.10.2018 06:00:00 9,1 8,3 - - 15 8 NNE 0,0
15.10.2018 05:00:00 9,0 8,1 - - 16 9 NNE 0,4
15.10.2018 04:00:00 9,5 7,7 - - 11 6 NNE 0,0
15.10.2018 03:00:00 9,4 7,6 - - 13 7 NNE 0,0
15.10.2018 02:00:00 9,4 7,4 - - 13 7 NNE 0,0
15.10.2018 01:00:00 9,5 7,1 - - 13 7 NNE 0,0
15.10.2018 00:00:00 9,4 6,9 - - 11 6 NNE 0,0
14.10.2018 23:00:00 9,2 7,1 - - 11 6 NNE 0,0
14.10.2018 22:00:00 9,1 7,4 - - 9 5 NNE 0,0
14.10.2018 21:00:00 9,0 7,4 - - 9 5 NNE 0,0
14.10.2018 20:00:00 9,1 7,1 - - 9 5 N 0,0
14.10.2018 19:00:00 9,2 7,1 - - 11 6 N 0,0
14.10.2018 18:00:00 9,2 7,1 - - 9 5 ENE 0,0
14.10.2018 17:00:00 9,3 7,4 - - 11 6 NE 0,0
14.10.2018 16:00:00 9,0 7,5 - - 13 7 NNE 0,2
14.10.2018 15:00:00 9,1 7,5 - - 16 9 N 1,0

tt = temperature
td = dewpoint
tt -20cm = temperature -20cm
tt -100cm = temperature -100cm
ff = wind speed
dd = wind direction
rr = precipitation

Next stations